Flight Track Log - Related Links

Times and Time Zones

All times are in EDT time to prevent confusion due to time zone crossing. See the ASA3464 flight status page for this flight to view local times or setup timezone preferences in your user account.

Time Position Orientation Groundspeed Altitude Reporting Facility
EDT Latitude Longitude Course Direction KTS MPH feet Rate Location/Type
Wed 11:16:11 PM 45.5944 -122.6217 302° West 162 186 600  Level Seattle Center
Wed 11:17:30 PM 45.6339 -122.7122 299° West 232 267 2,600 2,115 Climbing Seattle Center
Wed 11:18:30 PM 45.6681 -122.7992 268° West 254 292 5,500 2,727 Climbing Seattle Center
Wed 11:19:20 PM 45.6667 -122.8622 169° South 256 295 7,600 2,324 Climbing Seattle Center
Wed 11:20:21 PM 45.6131 -122.8475 124° Southeast 248 285 9,800 2,016 Climbing Seattle Center
Wed 11:21:22 PM 45.5614 -122.7394 123° Southeast 271 312 11,700 1,574 Climbing Seattle Center
Wed 11:22:23 PM 45.5144 -122.6353 123° Southeast 301 346 13,000 1,328 Climbing Seattle Center
Wed 11:23:24 PM 45.4636 -122.5242 124° Southeast 332 382 14,400 1,289 Climbing Seattle Center
Wed 11:24:24 PM 45.4108 -122.4119 123° Southeast 339 390 15,600 1,240 Climbing Seattle Center
Wed 11:25:25 PM 45.3575 -122.2953 124° Southeast 349 402 16,900 1,426 Climbing Seattle Center
Wed 11:26:26 PM 45.3022 -122.1775 124° Southeast 355 409 18,500 1,426 Climbing Seattle Center
Wed 11:27:27 PM 45.2469 -122.0603 154° Southeast 357 411 19,800 1,279 Climbing Seattle Center
Wed 11:28:28 PM 45.1611 -122.0011 158° South 351 404 21,100 1,131 Climbing Seattle Center
Wed 11:29:29 PM 45.0744 -121.9508 159° South 341 392 22,100 1,082 Climbing Seattle Center
Wed 11:30:30 PM 44.9717 -121.8939 159° South 348 400 23,300 1,131 Climbing Seattle Center
Wed 11:31:31 PM 44.8797 -121.8431 158° South 353 406 24,400 984 Climbing Seattle Center
Wed 11:32:32 PM 44.7864 -121.7897 159° South 362 417 25,300 992 Climbing Seattle Center
Wed 11:33:32 PM 44.6928 -121.7386 159° South 364 419 26,400 992 Climbing Seattle Center
Wed 11:34:33 PM 44.5997 -121.6881 159° South 363 418 27,300 836 Climbing Seattle Center
Wed 11:35:34 PM 44.5069 -121.6375 159° South 362 417 28,100 689 Climbing Seattle Center
Wed 11:36:35 PM 44.4142 -121.5878 159° South 361 415 28,700 639 Climbing Seattle Center
Wed 11:37:36 PM 44.3217 -121.5369 159° South 361 415 29,400 590 Climbing Seattle Center
Wed 11:38:37 PM 44.2286 -121.4869 159° South 362 417 29,900 541 Climbing Seattle Center
Wed 11:39:38 PM 44.1150 -121.4267 159° South 366 421 30,500 639 Climbing Seattle Center
Wed 11:40:39 PM 44.0189 -121.3756 158° South 370 426 31,200 689 Climbing Seattle Center
Wed 11:41:40 PM 43.9258 -121.3244 159° South 368 423 31,900 645 Climbing Seattle Center
Wed 11:42:40 PM 43.8344 -121.2750 161° South 359 413 32,500 496 Climbing Seattle Center
Wed 11:43:41 PM 43.7442 -121.2308 159° South 363 418 32,900 246 Climbing Seattle Center
Wed 11:44:42 PM 43.6506 -121.1819 159° South 360 414 33,000 49 Climbing Seattle Center
Wed 11:45:43 PM 43.5547 -121.1314 159° South 364 419 33,000  Level Seattle Center
Wed 11:46:44 PM 43.4572 -121.0789 159° South 371 427 33,000  Level Seattle Center
Wed 11:47:45 PM 43.3586 -121.0278 158° South 377 434 33,000  Level Seattle Center
Wed 11:48:45 PM 43.2594 -120.9736 161° South 381 438 33,000  Level Seattle Center
Wed 11:49:46 PM 43.1353 -120.9164 172° South 388 447 33,000  Level Seattle Center
Wed 11:50:47 PM 43.0286 -120.8964 169° South 387 445 33,000  Level Seattle Center
Wed 11:51:48 PM 42.9175 -120.8681 170° South 399 459 33,000  Level Seattle Center
Wed 11:52:49 PM 42.8081 -120.8425 170° South 399 459 33,000  Level Seattle Center
Wed 11:53:50 PM 42.7000 -120.8164 170° South 396 456 33,000  Level Seattle Center
Wed 11:54:50 PM 42.5900 -120.7897 170° South 398 458 33,000  Level Seattle Center
Wed 11:55:51 PM 42.4806 -120.7639 169° South 398 458 33,000  Level Seattle Center
Wed 11:56:52 PM 42.3717 -120.7361 170° South 397 457 33,000  Level Seattle Center
Wed 11:57:53 PM 42.2647 -120.7103 170° South 392 451 33,000  Level Seattle Center
Wed 11:58:54 PM 42.1589 -120.6853 170° South 388 447 33,000  Level Seattle Center
Wed 11:59:55 PM 42.0542 -120.6600 170° South 383 441 33,000  Level Seattle Center
Thu 12:00:55 AM 41.9494 -120.6361 170° South 381 438 33,000  Level Seattle Center
Thu 12:01:56 AM 41.8436 -120.6117 170° South 383 441 33,000  Level Seattle Center
Thu 12:02:57 AM 41.7411 -120.5878 169° South 377 434 33,000  Level Seattle Center
Thu 12:03:58 AM 41.6406 -120.5625 170° South 369 425 33,000  Level Seattle Center
Thu 12:04:59 AM 41.5394 -120.5389 170° South 369 425 33,000  Level Seattle Center
Thu 12:06:00 AM 41.4378 -120.5153 170° South 369 425 33,000  Level Seattle Center
Thu 12:07:00 AM 41.3356 -120.4922 170° South 370 426 33,000  Level Seattle Center
Thu 12:08:01 AM 41.2347 -120.4692 170° South 368 423 33,000  Level Seattle Center
Thu 12:09:02 AM 41.1333 -120.4458 170° South 368 423 33,000  Level Seattle Center
Thu 12:10:03 AM 41.0322 -120.4222 168° South 369 425 33,000  Level Seattle Center
Thu 12:11:04 AM 40.9111 -120.3894 166° South 369 425 33,000  Level Seattle Center
Thu 12:12:05 AM 40.8103 -120.3572 167° South 371 427 33,000  Level Seattle Center
Thu 12:13:06 AM 40.7089 -120.3258 166° South 373 429 33,000  Level Seattle Center
Thu 12:14:06 AM 40.6069 -120.2933 167° South 374 430 33,000  Level Seattle Center
Thu 12:15:07 AM 40.5044 -120.2622 167° South 377 434 33,000  Level Seattle Center
Thu 12:16:08 AM 40.4011 -120.2306 167° South 379 436 33,000  Level Seattle Center
Thu 12:17:09 AM 40.3072 -120.2019 167° South 379 436 33,000  Level Seattle Center
Thu 12:18:10 AM 40.1825 -120.1636 167° South 382 440 33,000  Level Seattle Center
Thu 12:19:11 AM 40.0775 -120.1317 167° South 386 444 33,000  Level Seattle Center
Thu 12:20:20 AM 39.9658 -120.0986 168° South 393 452 33,000  Level Oakland Center
Thu 12:21:20 AM 39.8594 -120.0700 166° South 393 452 33,000  Level Oakland Center
Thu 12:22:20 AM 39.7550 -120.0364 167° South 393 452 33,000  Level Oakland Center
Thu 12:23:20 AM 39.6483 -120.0053 167° South 393 452 33,000  Level Oakland Center
Thu 12:24:20 AM 39.5417 -119.9744 167° South 393 452 33,000  Level Oakland Center
Thu 12:25:20 AM 39.4206 -119.9386 167° South 399 459 33,000  Level Oakland Center
Thu 12:26:21 AM 39.3117 -119.9053 167° South 399 459 33,000  Level Oakland Center
Thu 12:27:21 AM 39.2008 -119.8722 167° South 399 459 33,000  Level Oakland Center
Thu 12:28:20 AM 39.0922 -119.8392 167° South 404 465 33,000  Level Oakland Center
Thu 12:29:21 AM 38.9833 -119.8061 168° South 404 465 33,000  Level Oakland Center
Thu 12:30:20 AM 38.8747 -119.7758 167° South 404 465 33,000  Level Oakland Center
Thu 12:31:20 AM 38.7639 -119.7431 167° South 404 465 33,000  Level Oakland Center
Thu 12:32:20 AM 38.6489 -119.7103 167° South 411 473 33,000  Level Oakland Center
Thu 12:33:20 AM 38.5378 -119.6778 166° South 411 473 33,000  Level Oakland Center
Thu 12:34:20 AM 38.4269 -119.6428 165° South 411 473 33,000  Level Oakland Center
Thu 12:35:20 AM 38.3306 -119.6100 167° South 411 473 33,000  Level Oakland Center
Thu 12:36:20 AM 38.2197 -119.5778 167° South 411 473 33,000  Level Oakland Center
Thu 12:37:20 AM 38.1044 -119.5431 168° South 411 473 33,000  Level Oakland Center
Thu 12:38:20 AM 37.9894 -119.5108 168° South 417 480 33,000  Level Oakland Center
Thu 12:39:20 AM 37.8786 -119.4817 167° South 417 480 33,000  Level Oakland Center
Thu 12:40:20 AM 37.7656 -119.4497 167° South 412 474 33,000  Level Oakland Center
Thu 12:41:20 AM 37.6525 -119.4181 170° South 417 480 33,000 -50 Level Oakland Center
Thu 12:42:20 AM 37.5353 -119.3917 168° South 416 479 32,900  Descending Oakland Center
Thu 12:43:20 AM 37.4242 -119.3625 168° South 416 479 33,000 50 Climbing Oakland Center
Thu 12:44:20 AM 37.3111 -119.3311 166° South 416 479 33,000  Level Oakland Center
Thu 12:45:20 AM 37.1981 -119.2969 169° South 416 479 33,000  Level Oakland Center
Thu 12:46:20 AM 37.0850 -119.2683 167° South 411 473 33,000  Level Oakland Center
Thu 12:47:20 AM 36.9719 -119.2369 168° South 416 479 33,000  Level Oakland Center
Thu 12:48:20 AM 36.8547 -119.2061 162° South 416 479 33,000 -50 Level Oakland Center
Thu 12:49:20 AM 36.7433 -119.1619 157° South 416 479 32,900 -50 Descending Oakland Center
Thu 12:50:20 AM 36.6339 -119.1050 156° South 416 479 32,900 34 Level Oakland Center
Thu 12:52:18 AM 36.4203 -118.9858 158° South 417 480 33,000  Climbing Los Angeles Center
Thu 12:53:18 AM 36.3111 -118.9303 156° South 417 480 32,900  Descending Los Angeles Center
Thu 12:54:18 AM 36.2058 -118.8725 157° South 417 480 33,000 50 Climbing Los Angeles Center
Thu 12:55:18 AM 36.0986 -118.8175 157° South 417 480 33,000 -50 Level Los Angeles Center
Thu 12:56:18 AM 35.9914 -118.7625 157° South 417 480 32,900 -50 Descending Los Angeles Center
Thu 12:57:18 AM 35.8800 -118.7050 157° South 422 486 32,900  Level Los Angeles Center
Thu 12:58:19 AM 35.7728 -118.6478 157° South 428 493 32,900  Level Los Angeles Center
Thu 12:59:18 AM 35.6611 -118.5906 157° South 428 493 32,900 50 Level Los Angeles Center
Thu 01:00:18 AM 35.5558 -118.5364 158° South 428 493 33,000 50 Climbing Los Angeles Center
Thu 01:01:18 AM 35.4381 -118.4769 158° South 428 493 33,000  Level Los Angeles Center
Thu 01:02:18 AM 35.3286 -118.4228 158° South 428 493 33,000 -300 Level Los Angeles Center
Thu 01:03:18 AM 35.2189 -118.3689 157° South 428 493 32,400 -1,350 Descending Los Angeles Center
Thu 01:04:18 AM 35.1094 -118.3125 158° South 428 493 30,300 -2,000 Descending Los Angeles Center
Thu 01:05:18 AM 35.0183 -118.2669 156° South 418 481 28,400 -1,950 Descending Los Angeles Center
Thu 01:06:18 AM 34.9192 -118.2136 159° South 406 467 26,400 -2,000 Descending Los Angeles Center
Thu 01:07:18 AM 34.8178 -118.1656 157° South 395 455 24,400 -2,000 Descending Los Angeles Center
Thu 01:08:18 AM 34.7183 -118.1153 156° South 390 449 22,400 -1,850 Descending Los Angeles Center
Thu 01:09:18 AM 34.6356 -118.0703 124° Southeast 362 417 20,700 -1,200 Descending Los Angeles Center
Thu 01:10:18 AM 34.5889 -117.9858 118° Southeast 319 367 20,000 -850 Descending Los Angeles Center
Thu 01:11:18 AM 34.5486 -117.8942 119° Southeast 298 343 19,000 -1,150 Descending Los Angeles Center
Thu 01:12:18 AM 34.5081 -117.8053 120° Southeast 298 343 17,700 -1,300 Descending Los Angeles Center
Thu 01:13:18 AM 34.4675 -117.7186 118° Southeast 298 343 16,400 -1,300 Descending Los Angeles Center
Thu 01:14:18 AM 34.4289 -117.6322 119° Southeast 293 337 15,100 -1,150 Descending Los Angeles Center
Thu 01:15:18 AM 34.3903 -117.5486 129° Southeast 293 337 14,100 -1,050 Descending Los Angeles Center
Thu 01:16:18 AM 34.3431 -117.4772 139° Southeast 284 327 13,000 -1,150 Descending Los Angeles Center
Thu 01:17:18 AM 34.2978 -117.4289 140° Southeast 259 298 11,800 -1,400 Descending Los Angeles Center
Thu 01:18:18 AM 34.2503 -117.3803 139° Southeast 241 277 10,200 -1,850 Descending Los Angeles Center
Thu 01:19:18 AM 34.2069 -117.3344 175° South 224 258 8,100 -1,250 Descending Los Angeles Center
Thu 01:20:18 AM 34.1464 -117.3286 168° South 211 243 7,700 -968 Descending Los Angeles Center
Thu 01:20:51 AM 34.1000 -117.3167 220° Southwest 223 257 6,600 -2,043 Descending Southern California TRACON
Thu 01:21:52 AM 34.0500 -117.3667 270° West 234 269 4,500 -1,380 Descending Southern California TRACON
Thu 01:23:58 AM 34.0500 -117.5000 273° West 183 211 2,300 -767 Descending Southern California TRACON
Thu 01:26:18 AM 34.0556 -117.6256 273° West 171 197 1,100 -514 Descending Los Angeles Center

Login

Don't have an account? Register now (free) for customized features, flight alerts, and more!